createdAt,value
2022-11-28T00:01:20.270Z,12.60
2022-11-28T00:03:47.293Z,9.30
2022-11-28T00:06:14.895Z,11.80
2022-11-28T00:08:41.782Z,10.50
2022-11-28T00:13:36.803Z,9.30
2022-11-28T00:16:05.856Z,9.10
2022-11-28T00:18:33.111Z,7.30
2022-11-28T00:21:01.491Z,7.30
2022-11-28T00:23:28.424Z,7.30
2022-11-28T00:25:59.150Z,6.90
2022-11-28T00:28:25.893Z,9.70
2022-11-28T00:30:52.779Z,8.90
2022-11-28T00:33:19.615Z,8.40
2022-11-28T00:38:12.931Z,9.10
2022-11-28T00:40:39.756Z,7.40
2022-11-28T00:45:33.019Z,8.30
2022-11-28T00:47:59.676Z,8.40
2022-11-28T00:50:26.465Z,7.50
2022-11-28T00:55:19.629Z,6.30
2022-11-28T00:57:46.628Z,7.20
2022-11-28T01:00:14.016Z,6.90
2022-11-28T01:02:40.749Z,8.50
2022-11-28T01:07:34.296Z,10.30
2022-11-28T01:12:27.530Z,12.60
2022-11-28T01:14:54.268Z,8.80
2022-11-28T01:19:47.472Z,7.50
2022-11-28T01:22:14.089Z,6.00
2022-11-28T01:24:41.007Z,8.20
2022-11-28T01:27:08.385Z,7.70
2022-11-28T01:29:35.081Z,6.10
2022-11-28T01:32:01.799Z,5.50
2022-11-28T01:36:55.701Z,6.20
2022-11-28T01:39:22.408Z,11.00
2022-11-28T01:44:21.784Z,5.90
2022-11-28T01:47:07.173Z,8.40
2022-11-28T01:49:36.502Z,6.80
2022-11-28T01:52:05.503Z,7.40
2022-11-28T01:54:33.762Z,6.10
2022-11-28T01:57:06.713Z,6.40
2022-11-28T01:59:37.971Z,7.80
2022-11-28T02:02:08.504Z,7.90
2022-11-28T02:04:35.299Z,7.70
2022-11-28T02:09:28.440Z,7.60
2022-11-28T02:12:12.013Z,6.50
2022-11-28T02:15:16.260Z,6.50
2022-11-28T02:18:10.337Z,9.40
2022-11-28T02:21:12.592Z,11.10
2022-11-28T02:23:45.006Z,8.50
2022-11-28T02:26:40.268Z,7.80
2022-11-28T02:29:46.747Z,6.20
2022-11-28T02:32:22.850Z,7.20
2022-11-28T02:34:57.535Z,8.10
2022-11-28T02:37:30.537Z,6.60
2022-11-28T02:40:37.548Z,7.70
2022-11-28T02:43:04.177Z,5.80
2022-11-28T02:45:30.791Z,6.50
2022-11-28T02:48:09.672Z,7.30
2022-11-28T02:50:53.319Z,7.30
2022-11-28T02:53:23.203Z,6.50
2022-11-28T02:55:51.524Z,7.90
2022-11-28T03:01:36.457Z,7.90
2022-11-28T03:04:19.333Z,9.50
2022-11-28T03:07:00.126Z,5.80
2022-11-28T03:09:42.656Z,9.00
2022-11-28T03:12:50.347Z,7.60
2022-11-28T03:15:23.814Z,10.60
2022-11-28T03:18:08.123Z,8.80
2022-11-28T03:20:40.580Z,6.30
2022-11-28T03:23:10.245Z,7.20
2022-11-28T03:26:04.219Z,7.90
2022-11-28T03:28:32.254Z,6.50
2022-11-28T03:31:07.265Z,6.10
2022-11-28T03:33:38.200Z,7.80
2022-11-28T03:36:12.089Z,6.60
2022-11-28T03:38:43.111Z,8.30
2022-11-28T03:41:15.122Z,6.40
2022-11-28T03:43:46.940Z,6.70
2022-11-28T03:46:16.634Z,6.40
2022-11-28T03:48:47.029Z,8.20
2022-11-28T03:51:20.382Z,6.30
2022-11-28T03:54:10.406Z,5.90
2022-11-28T03:56:49.168Z,6.40
2022-11-28T03:59:29.254Z,9.30
2022-11-28T04:02:16.510Z,5.90
2022-11-28T04:04:52.584Z,6.90
2022-11-28T04:07:40.248Z,7.40
2022-11-28T04:10:21.134Z,8.00
2022-11-28T04:13:22.972Z,7.00
2022-11-28T04:16:21.994Z,6.10
2022-11-28T04:19:00.203Z,7.40
2022-11-28T04:21:55.877Z,6.00
2022-11-28T04:24:26.454Z,6.90
2022-11-28T04:26:58.880Z,8.30
2022-11-28T04:29:26.745Z,7.30
2022-11-28T04:31:56.371Z,10.40
2022-11-28T04:34:23.998Z,6.00
2022-11-28T04:36:51.564Z,8.70
2022-11-28T04:39:21.815Z,6.70
2022-11-28T04:42:20.841Z,6.10
2022-11-28T04:45:02.885Z,8.40
2022-11-28T04:47:29.982Z,7.10
2022-11-28T04:49:56.869Z,4.50
2022-11-28T04:52:29.185Z,7.30
2022-11-28T04:55:14.827Z,7.60
2022-11-28T04:57:44.233Z,7.70
2022-11-28T05:00:14.044Z,7.40
2022-11-28T05:02:42.261Z,7.20
2022-11-28T05:05:15.232Z,5.60
2022-11-28T05:07:42.205Z,6.70
2022-11-28T05:10:11.360Z,8.10
2022-11-28T05:12:38.149Z,8.10
2022-11-28T05:15:05.888Z,7.40
2022-11-28T05:17:32.574Z,6.50
2022-11-28T05:19:59.318Z,13.00
2022-11-28T05:24:52.735Z,6.60
2022-11-28T05:27:19.424Z,5.80
2022-11-28T05:32:19.043Z,8.00
2022-11-28T05:34:45.784Z,8.40
2022-11-28T05:39:39.479Z,8.50
2022-11-28T05:42:06.484Z,8.80
2022-11-28T05:46:59.741Z,13.50
2022-11-28T05:51:53.108Z,9.50
2022-11-28T05:56:49.783Z,6.60
2022-11-28T05:59:19.234Z,8.40
2022-11-28T06:01:45.979Z,7.40
2022-11-28T06:04:12.731Z,7.40
2022-11-28T06:09:06.277Z,9.40
2022-11-28T06:11:34.166Z,6.00
2022-11-28T06:14:01.698Z,6.90
2022-11-28T06:16:29.979Z,8.20
2022-11-28T06:19:01.908Z,7.70
2022-11-28T06:21:29.796Z,5.90
2022-11-28T06:23:57.981Z,7.50
2022-11-28T06:26:26.281Z,7.50
2022-11-28T06:28:55.541Z,7.10
2022-11-28T06:31:31.524Z,7.20
2022-11-28T06:33:58.692Z,9.50
2022-11-28T06:36:26.524Z,11.30
2022-11-28T06:38:53.900Z,10.80
2022-11-28T06:41:21.271Z,8.10
2022-11-28T06:43:47.970Z,8.10
2022-11-28T06:46:17.892Z,6.30
2022-11-28T06:48:45.647Z,6.90
2022-11-28T06:51:13.488Z,53.20
2022-11-28T06:53:40.957Z,43.40
2022-11-28T06:56:16.721Z,48.30
2022-11-28T06:58:44.214Z,11.30
2022-11-28T07:01:15.991Z,11.00
2022-11-28T07:03:43.927Z,8.50
2022-11-28T07:06:11.692Z,9.20
2022-11-28T07:08:38.741Z,10.60
2022-11-28T07:11:11.430Z,12.90
2022-11-28T07:13:39.705Z,15.30
2022-11-28T07:16:07.744Z,14.00
2022-11-28T07:18:34.923Z,12.60
2022-11-28T07:21:01.753Z,11.80
2022-11-28T07:23:28.546Z,12.60
2022-11-28T07:26:02.431Z,12.40
2022-11-28T07:28:30.188Z,11.40
2022-11-28T07:31:31.969Z,10.40
2022-11-28T07:34:00.839Z,9.90
2022-11-28T07:36:28.895Z,9.00
2022-11-28T07:38:58.100Z,10.30
2022-11-28T07:41:26.991Z,10.80
2022-11-28T07:43:56.226Z,10.30
2022-11-28T07:46:24.389Z,13.00
2022-11-28T07:48:51.245Z,10.60
2022-11-28T07:51:21.816Z,12.20
2022-11-28T07:53:48.766Z,14.00
2022-11-28T07:56:17.735Z,12.80
2022-11-28T07:58:45.964Z,11.90
2022-11-28T08:01:33.368Z,12.00
2022-11-28T08:04:00.585Z,10.70
2022-11-28T08:06:29.699Z,11.00
2022-11-28T08:09:02.151Z,12.60
2022-11-28T08:11:30.257Z,11.00
2022-11-28T08:13:58.129Z,12.20
2022-11-28T08:16:27.689Z,13.00
2022-11-28T08:18:55.708Z,9.90
2022-11-28T08:21:25.298Z,11.40
2022-11-28T08:23:53.285Z,12.80
2022-11-28T08:26:24.908Z,15.30
2022-11-28T08:28:57.949Z,18.40
2022-11-28T08:31:36.839Z,18.00
2022-11-28T08:34:10.950Z,20.30
2022-11-28T08:36:37.873Z,16.40
2022-11-28T08:39:23.342Z,16.50
2022-11-28T08:41:50.651Z,15.30
2022-11-28T08:44:17.417Z,12.80
2022-11-28T08:46:44.342Z,13.30
2022-11-28T08:49:11.112Z,9.80
2022-11-28T08:51:37.800Z,12.90
2022-11-28T08:54:04.702Z,16.60
2022-11-28T08:56:31.421Z,17.60
2022-11-28T08:58:58.245Z,16.90
2022-11-28T09:01:26.792Z,12.20
2022-11-28T09:03:55.048Z,11.70
2022-11-28T09:06:23.035Z,10.80
2022-11-28T09:08:50.463Z,13.20
2022-11-28T09:11:19.337Z,11.80
2022-11-28T09:13:46.322Z,9.50
2022-11-28T09:16:14.572Z,10.20
2022-11-28T09:18:41.528Z,12.70
2022-11-28T09:21:09.587Z,12.50
2022-11-28T09:23:37.517Z,14.40
2022-11-28T09:26:11.938Z,18.20
2022-11-28T09:28:38.554Z,14.20
2022-11-28T09:31:06.893Z,11.70
2022-11-28T09:33:34.331Z,10.20
2022-11-28T09:36:09.327Z,13.80
2022-11-28T09:38:36.996Z,11.90
2022-11-28T09:41:04.674Z,12.20
2022-11-28T09:43:35.120Z,12.90
2022-11-28T09:46:06.310Z,10.20
2022-11-28T09:48:36.724Z,12.40
2022-11-28T09:51:15.059Z,9.30
2022-11-28T09:54:07.981Z,12.80
2022-11-28T09:56:35.736Z,13.30
2022-11-28T09:59:03.745Z,11.60
2022-11-28T10:01:53.128Z,13.20
2022-11-28T10:05:09.876Z,11.10
2022-11-28T10:07:55.552Z,9.00
2022-11-28T10:10:40.956Z,9.60
2022-11-28T10:13:21.503Z,8.80
2022-11-28T10:15:54.523Z,10.30
2022-11-28T10:19:02.615Z,9.80
2022-11-28T10:21:38.411Z,11.30
2022-11-28T10:24:16.498Z,11.80
2022-11-28T10:26:53.613Z,10.50
2022-11-28T10:29:38.594Z,9.80
2022-11-28T10:32:05.731Z,12.70
2022-11-28T10:34:40.400Z,12.60
2022-11-28T10:37:11.556Z,15.90
2022-11-28T10:39:43.195Z,12.10
2022-11-28T10:42:15.598Z,10.60
2022-11-28T10:44:51.182Z,13.30
2022-11-28T10:47:55.742Z,15.70
2022-11-28T10:50:34.409Z,14.20
2022-11-28T10:53:13.955Z,11.60
2022-11-28T10:56:11.670Z,14.20
2022-11-28T11:01:12.635Z,11.20
2022-11-28T11:03:40.072Z,14.60
2022-11-28T11:06:07.596Z,12.50
2022-11-28T11:08:36.761Z,12.60
2022-11-28T11:11:22.595Z,13.10
2022-11-28T11:14:05.876Z,14.20
2022-11-28T11:16:51.298Z,12.50
2022-11-28T11:19:25.047Z,13.40
2022-11-28T11:22:31.889Z,14.00
2022-11-28T11:25:25.570Z,11.10
2022-11-28T11:27:57.750Z,13.70
2022-11-28T11:30:42.746Z,12.70
2022-11-28T11:33:16.202Z,10.70
2022-11-28T11:35:44.989Z,10.50
2022-11-28T11:38:20.651Z,14.40
2022-11-28T11:40:48.540Z,11.30
2022-11-28T11:43:33.199Z,9.00
2022-11-28T11:46:14.543Z,10.80
2022-11-28T11:48:43.475Z,13.50
2022-11-28T11:51:36.625Z,16.70
2022-11-28T11:54:14.731Z,15.20
2022-11-28T11:56:46.523Z,13.70
2022-11-28T11:59:25.230Z,10.90
2022-11-28T12:01:56.181Z,14.30
2022-11-28T12:04:47.133Z,13.40
2022-11-28T12:07:46.258Z,14.10
2022-11-28T12:10:16.150Z,13.10
2022-11-28T12:12:43.414Z,10.60
2022-11-28T12:15:18.894Z,10.40
2022-11-28T12:17:58.860Z,10.70
2022-11-28T12:20:31.852Z,10.50
2022-11-28T12:23:20.725Z,10.10
2022-11-28T12:25:57.118Z,11.70
2022-11-28T12:28:52.844Z,10.80
2022-11-28T12:31:41.343Z,13.60
2022-11-28T12:34:08.051Z,12.40
2022-11-28T12:37:06.697Z,12.90
2022-11-28T12:39:45.214Z,12.50
2022-11-28T12:42:40.470Z,12.80
2022-11-28T12:45:39.282Z,12.90
2022-11-28T12:48:15.196Z,12.30
2022-11-28T12:50:45.860Z,13.40
2022-11-28T12:53:34.475Z,11.30
2022-11-28T12:56:09.737Z,13.90
2022-11-28T12:59:03.038Z,15.00
2022-11-28T13:01:42.056Z,12.90
2022-11-28T13:04:25.358Z,14.90
2022-11-28T13:06:54.843Z,15.90
2022-11-28T13:09:34.358Z,13.20
2022-11-28T13:12:04.147Z,14.30
2022-11-28T13:14:38.940Z,19.90
2022-11-28T13:17:23.852Z,20.10
2022-11-28T13:20:29.100Z,17.60
2022-11-28T13:23:20.996Z,15.20
2022-11-28T13:26:24.095Z,16.60
2022-11-28T13:29:17.159Z,16.60
2022-11-28T13:31:56.092Z,16.50
2022-11-28T13:34:25.988Z,12.10
2022-11-28T13:39:47.317Z,15.30
2022-11-28T13:45:48.470Z,12.40
2022-11-28T13:51:32.705Z,15.20
2022-11-28T13:54:31.837Z,14.20
2022-11-28T13:57:16.961Z,14.50
2022-11-28T14:00:11.576Z,13.30
2022-11-28T14:02:47.814Z,13.10
2022-11-28T14:05:36.182Z,11.60
2022-11-28T14:08:04.254Z,13.90
2022-11-28T14:10:56.684Z,12.30
2022-11-28T14:13:53.260Z,13.60
2022-11-28T14:16:19.962Z,10.80
2022-11-28T14:19:03.018Z,12.90
2022-11-28T14:21:37.676Z,12.70
2022-11-28T14:24:19.082Z,10.90
2022-11-28T14:26:46.311Z,14.80
2022-11-28T14:29:38.554Z,14.60
2022-11-28T14:34:53.847Z,17.30
2022-11-28T14:37:20.897Z,17.90
2022-11-28T14:39:49.597Z,16.90
2022-11-28T14:42:44.157Z,14.50
2022-11-28T14:45:33.554Z,15.10
2022-11-28T14:48:22.930Z,14.60
2022-11-28T14:50:55.914Z,15.70
2022-11-28T14:53:36.380Z,11.70
2022-11-28T14:56:11.938Z,13.80
2022-11-28T14:58:38.873Z,15.60
2022-11-28T15:01:10.436Z,13.00
2022-11-28T15:03:40.659Z,16.40
2022-11-28T15:06:20.240Z,12.70
2022-11-28T15:09:02.806Z,13.70
2022-11-28T15:11:48.380Z,13.70
2022-11-28T15:14:20.238Z,14.10
2022-11-28T15:19:39.689Z,14.50
2022-11-28T15:22:11.884Z,11.10
2022-11-28T15:24:40.255Z,12.20
2022-11-28T15:27:08.202Z,12.50
2022-11-28T15:29:36.540Z,17.20
2022-11-28T15:32:04.772Z,15.80
2022-11-28T15:34:33.200Z,14.80
2022-11-28T15:37:05.891Z,14.10
2022-11-28T15:39:40.020Z,14.20
2022-11-28T15:42:09.347Z,14.10
2022-11-28T15:44:37.831Z,16.40
2022-11-28T15:47:05.846Z,16.10
2022-11-28T15:49:34.789Z,13.80
2022-11-28T15:52:03.641Z,17.50
2022-11-28T15:54:41.421Z,15.40
2022-11-28T15:57:26.100Z,15.50
2022-11-28T15:59:53.009Z,17.60
2022-11-28T16:02:26.630Z,15.70
2022-11-28T16:05:01.000Z,14.70
2022-11-28T16:07:27.738Z,16.00
2022-11-28T16:09:58.819Z,14.40
2022-11-28T16:12:26.557Z,14.40
2022-11-28T16:14:58.760Z,15.10
2022-11-28T16:17:36.480Z,13.20
2022-11-28T16:20:04.693Z,11.80
2022-11-28T16:22:36.552Z,14.10
2022-11-28T16:25:20.330Z,13.50
2022-11-28T16:27:48.867Z,20.60
2022-11-28T16:30:39.517Z,22.70
2022-11-28T16:33:35.786Z,20.10
2022-11-28T16:36:08.828Z,23.70
2022-11-28T16:38:35.876Z,24.90
2022-11-28T16:41:02.586Z,27.30
2022-11-28T16:43:35.458Z,22.30
2022-11-28T16:46:06.542Z,23.70
2022-11-28T16:48:38.211Z,19.20
2022-11-28T16:51:10.714Z,19.60
2022-11-28T16:53:48.059Z,16.00
2022-11-28T16:56:30.191Z,17.90
2022-11-28T16:59:19.432Z,16.20
2022-11-28T17:01:47.352Z,15.30
2022-11-28T17:04:23.571Z,16.80
2022-11-28T17:06:52.353Z,20.90
2022-11-28T17:09:19.626Z,14.60
2022-11-28T17:12:25.820Z,15.20
2022-11-28T17:14:52.958Z,13.80
2022-11-28T17:17:21.168Z,15.40
2022-11-28T17:19:47.806Z,17.20
2022-11-28T17:22:17.181Z,17.90
2022-11-28T17:24:44.075Z,15.70
2022-11-28T17:27:14.653Z,15.80
2022-11-28T17:29:41.946Z,17.70
2022-11-28T17:32:13.647Z,17.10
2022-11-28T17:34:42.329Z,16.40
2022-11-28T17:37:09.472Z,17.90
2022-11-28T17:39:36.261Z,14.20
2022-11-28T17:42:03.558Z,15.70
2022-11-28T17:44:36.264Z,19.50
2022-11-28T17:47:04.118Z,16.40
2022-11-28T17:49:31.317Z,13.40
2022-11-28T17:51:58.625Z,16.80
2022-11-28T17:54:26.494Z,14.20
2022-11-28T17:56:54.143Z,11.20
2022-11-28T17:59:26.995Z,11.20
2022-11-28T18:01:54.061Z,12.90
2022-11-28T18:04:24.206Z,15.90
2022-11-28T18:06:51.040Z,12.90
2022-11-28T18:09:17.747Z,15.10
2022-11-28T18:11:46.497Z,16.30
2022-11-28T18:14:13.931Z,19.10
2022-11-28T18:16:43.062Z,14.00
2022-11-28T18:19:10.237Z,18.50
2022-11-28T18:21:37.375Z,19.70
2022-11-28T18:24:04.792Z,21.90
2022-11-28T18:26:31.920Z,18.70
2022-11-28T18:28:59.189Z,19.20
2022-11-28T18:31:28.707Z,21.90
2022-11-28T18:34:01.392Z,17.50
2022-11-28T18:36:31.293Z,24.30
2022-11-28T18:39:00.148Z,18.40
2022-11-28T18:41:27.580Z,22.30
2022-11-28T18:43:59.408Z,18.70
2022-11-28T18:46:28.011Z,21.60
2022-11-28T18:48:54.852Z,22.60
2022-11-28T18:51:24.271Z,19.70
2022-11-28T18:53:52.720Z,27.40
2022-11-28T18:56:20.194Z,21.30
2022-11-28T18:58:53.192Z,22.20
2022-11-28T19:01:22.199Z,21.50
2022-11-28T19:03:50.611Z,21.60
2022-11-28T19:06:18.745Z,24.90
2022-11-28T19:08:45.724Z,21.80
2022-11-28T19:11:14.803Z,19.20
2022-11-28T19:13:42.978Z,18.00
2022-11-28T19:16:13.183Z,25.10
2022-11-28T19:18:40.772Z,18.20
2022-11-28T19:21:10.946Z,19.80
2022-11-28T19:23:38.254Z,16.60
2022-11-28T19:26:13.183Z,22.60
2022-11-28T19:28:41.053Z,16.40
2022-11-28T19:31:21.983Z,16.80
2022-11-28T19:34:15.800Z,18.30
2022-11-28T19:36:45.442Z,21.50
2022-11-28T19:39:17.126Z,19.60
2022-11-28T19:41:44.094Z,19.40
2022-11-28T19:44:12.378Z,23.90
2022-11-28T19:46:39.117Z,24.80
2022-11-28T19:49:07.561Z,21.10
2022-11-28T19:51:34.747Z,21.00
2022-11-28T19:54:03.644Z,20.70
2022-11-28T19:56:31.536Z,23.80
2022-11-28T19:58:58.701Z,25.40
2022-11-28T20:01:25.834Z,22.30
2022-11-28T20:03:53.013Z,17.40
2022-11-28T20:06:27.081Z,20.60
2022-11-28T20:08:55.321Z,22.40
2022-11-28T20:11:24.804Z,19.70
2022-11-28T20:14:02.166Z,14.40
2022-11-28T20:16:30.616Z,17.90
2022-11-28T20:19:00.479Z,20.30
2022-11-28T20:21:28.280Z,20.30
2022-11-28T20:23:58.310Z,22.00
2022-11-28T20:26:26.951Z,17.20
2022-11-28T20:28:55.618Z,18.20
2022-11-28T20:31:26.837Z,19.20
2022-11-28T20:33:54.600Z,18.30
2022-11-28T20:36:23.821Z,18.30
2022-11-28T20:38:51.636Z,17.80
2022-11-28T20:41:20.046Z,20.30
2022-11-28T20:43:47.522Z,19.60
2022-11-28T20:46:18.360Z,16.50
2022-11-28T20:48:45.114Z,17.80
2022-11-28T20:51:14.284Z,17.80
2022-11-28T20:53:43.791Z,17.90
2022-11-28T20:56:18.995Z,16.70
2022-11-28T20:58:45.845Z,15.10
2022-11-28T21:01:17.169Z,15.80
2022-11-28T21:03:44.354Z,16.10
2022-11-28T21:06:11.222Z,16.10
2022-11-28T21:08:38.471Z,13.90
2022-11-28T21:11:06.684Z,14.90
2022-11-28T21:13:33.696Z,16.20
2022-11-28T21:19:38.497Z,17.40
2022-11-28T21:23:41.398Z,20.50
2022-11-28T21:27:43.081Z,20.80
2022-11-28T21:35:46.961Z,17.50
2022-11-28T21:43:50.337Z,20.40
2022-11-28T21:47:52.900Z,23.50
2022-11-28T21:51:55.306Z,24.30
2022-11-28T21:56:01.990Z,24.50
2022-11-28T22:00:05.020Z,22.00
2022-11-28T22:04:17.367Z,15.40
2022-11-28T22:08:20.719Z,15.70
2022-11-28T22:12:23.987Z,21.30
2022-11-28T22:16:28.380Z,16.90
2022-11-28T22:20:30.807Z,19.80
2022-11-28T22:24:32.510Z,18.40
2022-11-28T22:32:37.487Z,12.50
2022-11-28T22:40:41.014Z,15.80
2022-11-28T22:44:43.079Z,17.20
2022-11-28T22:48:45.086Z,16.90
2022-11-28T22:52:47.461Z,18.50
2022-11-28T22:56:49.427Z,19.70
2022-11-28T23:04:52.799Z,15.10
2022-11-28T23:08:55.944Z,15.00
2022-11-28T23:12:59.650Z,19.10
2022-11-28T23:21:05.745Z,14.40
2022-11-28T23:25:08.155Z,14.20
2022-11-28T23:29:11.616Z,12.40
2022-11-28T23:33:13.848Z,12.70
2022-11-28T23:37:15.835Z,13.40
2022-11-28T23:45:19.051Z,20.30
2022-11-28T23:49:21.148Z,17.40
2022-11-28T23:53:23.034Z,18.30
2022-11-28T23:57:24.653Z,19.70
